createdAt,value
2022-08-09T00:00:06.142Z,5.60
2022-08-09T00:04:00.635Z,6.60
2022-08-09T00:06:15.554Z,6.50
2022-08-09T00:08:53.374Z,6.10
2022-08-09T00:11:58.690Z,5.30
2022-08-09T00:18:04.270Z,5.80
2022-08-09T00:20:05.142Z,6.30
2022-08-09T00:22:37.063Z,5.90
2022-08-09T00:25:14.301Z,6.00
2022-08-09T00:27:56.469Z,6.70
2022-08-09T00:30:30.539Z,5.90
2022-08-09T00:33:05.595Z,5.40
2022-08-09T00:35:42.859Z,5.60
2022-08-09T00:38:16.150Z,5.50
2022-08-09T00:40:54.923Z,5.20
2022-08-09T00:44:16.910Z,5.90
2022-08-09T00:46:45.293Z,5.60
2022-08-09T00:49:15.372Z,5.70
2022-08-09T00:51:54.446Z,5.40
2022-08-09T00:54:34.969Z,6.30
2022-08-09T00:57:11.059Z,5.40
2022-08-09T00:59:47.112Z,5.60
2022-08-09T01:02:29.270Z,5.30
2022-08-09T01:05:14.202Z,5.90
2022-08-09T01:08:02.691Z,6.20
2022-08-09T01:10:43.466Z,5.60
2022-08-09T01:13:53.208Z,6.20
2022-08-09T01:16:28.739Z,5.80
2022-08-09T01:19:16.903Z,6.10
2022-08-09T01:22:16.296Z,5.40
2022-08-09T01:25:00.904Z,5.80
2022-08-09T01:27:37.243Z,6.10
2022-08-09T01:30:28.657Z,6.20
2022-08-09T01:33:10.067Z,5.90
2022-08-09T01:35:52.216Z,6.10
2022-08-09T01:38:28.709Z,5.70
2022-08-09T01:41:06.155Z,6.00
2022-08-09T01:43:50.640Z,6.40
2022-08-09T01:46:31.658Z,5.70
2022-08-09T01:49:10.494Z,6.30
2022-08-09T01:51:54.464Z,6.10
2022-08-09T01:54:33.904Z,6.90
2022-08-09T01:57:16.548Z,6.50
2022-08-09T01:59:53.289Z,5.90
2022-08-09T02:02:36.292Z,6.00
2022-08-09T02:05:16.122Z,6.00
2022-08-09T02:08:40.414Z,6.20
2022-08-09T02:10:50.958Z,5.90
2022-08-09T02:13:40.177Z,6.30
2022-08-09T02:16:15.977Z,5.90
2022-08-09T02:18:48.479Z,5.80
2022-08-09T02:21:24.150Z,6.80
2022-08-09T02:24:04.714Z,5.90
2022-08-09T02:26:39.130Z,6.60
2022-08-09T02:29:21.825Z,5.90
2022-08-09T02:32:01.356Z,6.00
2022-08-09T02:34:41.704Z,6.30
2022-08-09T02:37:31.784Z,6.10
2022-08-09T02:40:11.045Z,6.00
2022-08-09T02:42:51.082Z,6.20
2022-08-09T02:45:30.054Z,6.20
2022-08-09T02:48:12.313Z,6.80
2022-08-09T02:51:03.359Z,6.40
2022-08-09T02:54:00.507Z,6.20
2022-08-09T02:56:36.514Z,6.20
2022-08-09T02:59:12.842Z,6.00
2022-08-09T03:02:06.234Z,6.30
2022-08-09T03:04:40.874Z,5.80
2022-08-09T03:07:14.667Z,6.10
2022-08-09T03:09:54.390Z,6.40
2022-08-09T03:12:30.493Z,6.40
2022-08-09T03:15:04.816Z,6.40
2022-08-09T03:17:38.415Z,6.10
2022-08-09T03:22:52.622Z,6.50
2022-08-09T03:25:58.537Z,6.40
2022-08-09T03:28:25.776Z,7.30
2022-08-09T03:30:59.365Z,6.60
2022-08-09T03:33:54.395Z,6.50
2022-08-09T03:36:29.415Z,7.10
2022-08-09T03:39:02.854Z,6.40
2022-08-09T03:41:45.754Z,6.50
2022-08-09T03:44:21.699Z,6.00
2022-08-09T03:46:59.651Z,7.20
2022-08-09T03:49:35.801Z,6.90
2022-08-09T03:52:09.172Z,7.00
2022-08-09T03:54:45.138Z,8.40
2022-08-09T03:57:20.453Z,6.50
2022-08-09T04:00:00.623Z,7.80
2022-08-09T04:02:36.037Z,7.80
2022-08-09T04:05:26.979Z,6.60
2022-08-09T04:07:59.839Z,8.10
2022-08-09T04:10:33.232Z,7.80
2022-08-09T04:13:13.575Z,8.20
2022-08-09T04:16:18.667Z,7.00
2022-08-09T04:18:45.888Z,7.20
2022-08-09T04:21:19.056Z,7.50
2022-08-09T04:23:53.634Z,6.80
2022-08-09T04:26:37.717Z,6.90
2022-08-09T04:29:15.667Z,9.30
2022-08-09T04:31:48.112Z,9.50
2022-08-09T04:34:30.772Z,7.60
2022-08-09T04:37:04.352Z,6.70
2022-08-09T04:42:15.920Z,7.90
2022-08-09T04:44:50.413Z,7.10
2022-08-09T04:47:25.536Z,7.10
2022-08-09T04:50:05.430Z,7.50
2022-08-09T04:52:42.191Z,7.10
2022-08-09T04:55:15.520Z,7.40
2022-08-09T04:57:59.464Z,8.50
2022-08-09T05:00:41.009Z,8.20
2022-08-09T05:03:41.108Z,7.90
2022-08-09T05:06:08.150Z,9.10
2022-08-09T05:08:43.891Z,8.10
2022-08-09T05:11:19.995Z,8.30
2022-08-09T05:13:55.039Z,7.20
2022-08-09T05:16:31.579Z,7.70
2022-08-09T05:19:04.239Z,8.10
2022-08-09T05:21:47.183Z,9.30
2022-08-09T05:24:27.534Z,7.70
2022-08-09T05:26:59.598Z,8.00
2022-08-09T05:29:35.519Z,7.70
2022-08-09T05:32:08.485Z,8.30
2022-08-09T05:34:42.900Z,9.50
2022-08-09T05:37:18.292Z,7.60
2022-08-09T05:39:50.586Z,7.90
2022-08-09T05:42:28.045Z,8.40
2022-08-09T05:45:06.081Z,6.90
2022-08-09T05:47:45.511Z,8.10
2022-08-09T05:50:50.476Z,9.90
2022-08-09T05:53:21.630Z,7.80
2022-08-09T05:56:04.114Z,7.60
2022-08-09T05:58:37.025Z,8.70
2022-08-09T06:01:09.679Z,9.10
2022-08-09T06:03:58.175Z,9.40
2022-08-09T06:06:31.096Z,8.80
2022-08-09T06:09:09.893Z,9.30
2022-08-09T06:11:57.774Z,8.00
2022-08-09T06:14:30.108Z,9.80
2022-08-09T06:17:09.064Z,8.40
2022-08-09T06:19:42.087Z,8.60
2022-08-09T06:22:15.740Z,8.70
2022-08-09T06:24:47.715Z,8.40
2022-08-09T06:27:21.003Z,8.90
2022-08-09T06:30:04.573Z,8.50
2022-08-09T06:33:00.608Z,8.60
2022-08-09T06:35:35.798Z,9.10
2022-08-09T06:38:36.336Z,8.20
2022-08-09T06:41:18.709Z,8.90
2022-08-09T06:43:53.100Z,8.90
2022-08-09T06:46:40.347Z,9.00
2022-08-09T06:49:16.214Z,8.80
2022-08-09T06:52:01.245Z,9.10
2022-08-09T06:54:33.120Z,9.00
2022-08-09T06:57:04.915Z,9.10
2022-08-09T07:00:57.405Z,11.20
2022-08-09T07:02:32.415Z,9.50
2022-08-09T07:05:06.251Z,8.80
2022-08-09T07:08:00.670Z,8.80
2022-08-09T07:10:32.501Z,9.00
2022-08-09T07:13:27.586Z,10.50
2022-08-09T07:16:42.655Z,9.50
2022-08-09T07:18:50.174Z,10.30
2022-08-09T07:21:22.036Z,9.50
2022-08-09T07:23:58.158Z,9.40
2022-08-09T07:26:30.326Z,9.40
2022-08-09T07:29:12.214Z,10.50
2022-08-09T07:31:48.097Z,10.20
2022-08-09T07:34:20.535Z,9.10
2022-08-09T07:36:53.515Z,8.10
2022-08-09T07:39:41.084Z,9.70
2022-08-09T07:42:14.316Z,9.30
2022-08-09T07:44:51.574Z,9.20
2022-08-09T07:47:25.185Z,9.10
2022-08-09T07:50:05.314Z,9.10
2022-08-09T07:52:41.402Z,8.40
2022-08-09T07:55:15.401Z,8.70
2022-08-09T07:57:49.021Z,9.10
2022-08-09T08:00:35.983Z,8.00
2022-08-09T08:03:09.833Z,8.40
2022-08-09T08:05:57.559Z,7.40
2022-08-09T08:09:00.596Z,7.60
2022-08-09T08:12:10.577Z,7.30
2022-08-09T08:14:14.529Z,6.90
2022-08-09T08:17:00.553Z,6.10
2022-08-09T08:19:32.893Z,6.70
2022-08-09T08:22:05.609Z,6.80
2022-08-09T08:24:40.038Z,5.90
2022-08-09T08:27:17.078Z,5.50
2022-08-09T08:29:52.280Z,6.30
2022-08-09T08:32:29.458Z,5.30
2022-08-09T08:35:02.758Z,5.60
2022-08-09T08:37:41.315Z,5.70
2022-08-09T08:40:26.918Z,5.60
2022-08-09T08:43:02.014Z,5.10
2022-08-09T08:45:43.239Z,5.90
2022-08-09T08:48:29.154Z,5.70
2022-08-09T08:51:04.185Z,5.50
2022-08-09T08:53:37.414Z,5.60
2022-08-09T08:56:13.650Z,6.30
2022-08-09T08:58:57.170Z,5.90
2022-08-09T09:01:44.931Z,5.40
2022-08-09T09:04:26.666Z,5.70
2022-08-09T09:07:02.448Z,4.10
2022-08-09T09:10:01.806Z,6.30
2022-08-09T09:12:34.157Z,6.00
2022-08-09T09:15:09.279Z,5.40
2022-08-09T09:17:48.960Z,5.70
2022-08-09T09:20:25.844Z,4.60
2022-08-09T09:23:01.855Z,4.90
2022-08-09T09:26:04.056Z,4.00
2022-08-09T09:29:02.924Z,4.40
2022-08-09T09:32:04.065Z,3.90
2022-08-09T09:34:19.514Z,5.30
2022-08-09T09:36:53.917Z,4.70
2022-08-09T09:39:55.177Z,5.40
2022-08-09T09:42:36.341Z,4.40
2022-08-09T09:45:10.658Z,4.60
2022-08-09T09:47:56.667Z,4.50
2022-08-09T09:50:49.604Z,4.60
2022-08-09T09:53:43.827Z,4.30
2022-08-09T09:56:19.675Z,4.60
2022-08-09T09:59:03.566Z,4.00
2022-08-09T10:01:38.225Z,4.10
2022-08-09T10:04:22.574Z,3.50
2022-08-09T10:07:03.657Z,4.00
2022-08-09T10:09:54.825Z,3.90
2022-08-09T10:12:29.570Z,4.90
2022-08-09T10:15:17.531Z,3.70
2022-08-09T10:18:14.033Z,3.90
2022-08-09T10:20:48.754Z,4.50
2022-08-09T10:23:24.288Z,4.20
2022-08-09T10:26:07.497Z,3.50
2022-08-09T10:28:48.736Z,3.40
2022-08-09T10:34:33.474Z,4.10
2022-08-09T10:37:09.678Z,3.60
2022-08-09T10:39:49.439Z,3.20
2022-08-09T10:42:26.904Z,3.40
2022-08-09T10:45:10.719Z,3.40
2022-08-09T10:48:19.248Z,4.90
2022-08-09T10:51:12.158Z,3.30
2022-08-09T10:54:04.883Z,3.60
2022-08-09T10:56:39.099Z,3.40
2022-08-09T10:59:31.762Z,3.40
2022-08-09T11:03:15.572Z,3.30
2022-08-09T11:05:31.110Z,3.10
2022-08-09T11:08:34.034Z,3.50
2022-08-09T11:11:15.665Z,3.40
2022-08-09T11:13:53.693Z,3.60
2022-08-09T11:16:37.345Z,2.70
2022-08-09T11:19:11.397Z,3.20
2022-08-09T11:22:05.300Z,3.30
2022-08-09T11:25:10.289Z,4.10
2022-08-09T11:28:04.069Z,3.80
2022-08-09T11:30:37.811Z,3.90
2022-08-09T11:33:26.405Z,4.70
2022-08-09T11:36:00.302Z,4.40
2022-08-09T11:38:34.965Z,3.90
2022-08-09T11:41:37.972Z,4.30
2022-08-09T11:44:13.553Z,4.40
2022-08-09T11:46:57.000Z,4.40
2022-08-09T11:50:55.698Z,3.50
2022-08-09T11:53:58.093Z,3.70
2022-08-09T11:56:41.989Z,4.50
2022-08-09T11:59:33.550Z,4.70
2022-08-09T12:02:17.205Z,3.80
2022-08-09T12:04:58.196Z,4.40
2022-08-09T12:07:41.337Z,3.90
2022-08-09T12:10:39.590Z,4.00
2022-08-09T12:14:09.720Z,4.40
2022-08-09T12:16:03.595Z,4.10
2022-08-09T12:18:37.509Z,4.50
2022-08-09T12:21:28.655Z,3.30
2022-08-09T12:24:09.625Z,4.30
2022-08-09T12:26:44.663Z,4.50
2022-08-09T12:29:33.100Z,4.80
2022-08-09T12:32:11.585Z,4.10
2022-08-09T12:34:44.813Z,4.80
2022-08-09T12:37:23.832Z,3.90
2022-08-09T12:40:06.378Z,4.00
2022-08-09T12:42:44.239Z,4.20
2022-08-09T12:45:34.266Z,5.00
2022-08-09T12:48:11.051Z,4.20
2022-08-09T12:51:03.792Z,3.70
2022-08-09T12:53:40.952Z,3.90
2022-08-09T12:56:44.258Z,3.60
2022-08-09T12:59:14.347Z,5.90
2022-08-09T13:01:50.317Z,4.40
2022-08-09T13:04:37.580Z,4.70
2022-08-09T13:07:16.791Z,4.40
2022-08-09T13:10:05.102Z,4.30
2022-08-09T13:13:09.743Z,4.30
2022-08-09T13:15:58.616Z,4.00
2022-08-09T13:18:46.888Z,4.60
2022-08-09T13:22:36.718Z,4.60
2022-08-09T13:24:52.672Z,5.30
2022-08-09T13:27:24.282Z,5.10
2022-08-09T13:30:51.291Z,4.00
2022-08-09T13:32:56.779Z,4.30
2022-08-09T13:35:34.234Z,3.60
2022-08-09T13:38:17.807Z,3.80
2022-08-09T13:41:55.682Z,4.30
2022-08-09T13:43:53.855Z,3.70
2022-08-09T13:47:16.103Z,3.70
2022-08-09T13:49:18.330Z,4.90
2022-08-09T13:52:00.535Z,3.70
2022-08-09T13:54:33.108Z,4.10
2022-08-09T13:57:06.415Z,3.60
2022-08-09T13:59:42.056Z,3.80
2022-08-09T14:02:16.780Z,5.00
2022-08-09T14:04:59.665Z,3.60
2022-08-09T14:07:42.183Z,4.10
2022-08-09T14:10:17.287Z,3.60
2022-08-09T14:13:00.999Z,3.70
2022-08-09T14:16:08.923Z,3.90
2022-08-09T14:18:32.021Z,4.30
2022-08-09T14:21:04.077Z,3.80
2022-08-09T14:23:40.299Z,4.20
2022-08-09T14:26:18.796Z,4.00
2022-08-09T14:28:50.664Z,3.80
2022-08-09T14:31:23.700Z,4.60
2022-08-09T14:34:17.661Z,3.80
2022-08-09T14:37:06.075Z,3.70
2022-08-09T14:39:46.904Z,3.70
2022-08-09T14:42:32.026Z,4.00
2022-08-09T14:47:00.748Z,5.30
2022-08-09T14:48:03.523Z,4.20
2022-08-09T14:50:37.354Z,4.70
2022-08-09T14:53:13.729Z,4.30
2022-08-09T14:55:49.934Z,4.70
2022-08-09T14:58:22.415Z,3.90
2022-08-09T15:03:29.997Z,4.40
2022-08-09T15:06:03.943Z,4.00
2022-08-09T15:08:36.203Z,4.90
2022-08-09T15:11:09.389Z,4.30
2022-08-09T15:13:56.354Z,4.20
2022-08-09T15:16:35.872Z,4.00
2022-08-09T15:19:18.169Z,4.40
2022-08-09T15:21:58.617Z,4.10
2022-08-09T15:24:33.750Z,3.90
2022-08-09T15:27:05.591Z,4.50
2022-08-09T15:30:58.435Z,3.90
2022-08-09T15:32:30.514Z,5.20
2022-08-09T15:35:18.705Z,4.00
2022-08-09T15:37:57.157Z,4.10
2022-08-09T15:40:44.754Z,3.80
2022-08-09T15:43:18.094Z,3.60
2022-08-09T15:46:07.528Z,3.30
2022-08-09T15:48:41.580Z,3.30
2022-08-09T15:52:04.014Z,3.70
2022-08-09T15:54:33.450Z,4.10
2022-08-09T15:57:14.440Z,4.00
2022-08-09T15:59:52.027Z,14.70
2022-08-09T16:02:27.058Z,4.60
2022-08-09T16:04:59.231Z,4.20
2022-08-09T16:07:38.930Z,3.80
2022-08-09T16:10:38.458Z,4.60
2022-08-09T16:13:05.122Z,4.70
2022-08-09T16:16:11.023Z,3.60
2022-08-09T16:18:49.939Z,4.30
2022-08-09T16:21:31.606Z,4.10
2022-08-09T16:24:19.955Z,4.30
2022-08-09T16:27:02.164Z,3.90
2022-08-09T16:29:49.996Z,3.50
2022-08-09T16:32:49.640Z,3.60
2022-08-09T16:35:55.744Z,3.60
2022-08-09T16:38:18.735Z,3.70
2022-08-09T16:40:50.744Z,5.20
2022-08-09T16:43:22.736Z,3.90
2022-08-09T16:45:55.593Z,4.10
2022-08-09T16:48:39.161Z,3.40
2022-08-09T16:51:20.034Z,3.70
2022-08-09T16:54:25.209Z,4.00
2022-08-09T16:56:49.339Z,3.70
2022-08-09T16:59:22.233Z,3.80
2022-08-09T17:01:54.119Z,4.00
2022-08-09T17:04:30.021Z,3.70
2022-08-09T17:08:40.760Z,3.90
2022-08-09T17:10:01.852Z,3.90
2022-08-09T17:12:36.720Z,3.80
2022-08-09T17:15:31.463Z,3.80
2022-08-09T17:18:02.542Z,3.90
2022-08-09T17:20:39.047Z,4.80
2022-08-09T17:23:16.097Z,3.50
2022-08-09T17:25:52.797Z,4.30
2022-08-09T17:28:25.028Z,4.40
2022-08-09T17:30:58.838Z,4.20
2022-08-09T17:33:32.267Z,4.50
2022-08-09T17:36:14.695Z,4.70
2022-08-09T17:38:52.747Z,14.90
2022-08-09T17:41:38.888Z,12.30
2022-08-09T17:44:42.291Z,13.90
2022-08-09T17:47:04.058Z,34.70
2022-08-09T17:49:36.454Z,42.90
2022-08-09T17:52:22.724Z,64.50
2022-08-09T17:54:55.632Z,19.40
2022-08-09T17:58:04.007Z,27.30
2022-08-09T18:00:21.263Z,23.30
2022-08-09T18:03:13.089Z,9.90
2022-08-09T18:05:45.017Z,8.40
2022-08-09T18:08:27.387Z,12.70
2022-08-09T18:11:02.210Z,5.70
2022-08-09T18:13:39.444Z,11.20
2022-08-09T18:16:16.406Z,10.10
2022-08-09T18:18:49.111Z,6.40
2022-08-09T18:21:23.721Z,8.30
2022-08-09T18:24:10.661Z,9.90
2022-08-09T18:26:46.859Z,5.20
2022-08-09T18:30:38.509Z,6.80
2022-08-09T18:32:12.782Z,6.50
2022-08-09T18:34:44.873Z,5.20
2022-08-09T18:37:49.153Z,6.70
2022-08-09T18:40:10.277Z,5.00
2022-08-09T18:42:46.732Z,5.40
2022-08-09T18:45:21.469Z,4.90
2022-08-09T18:47:53.798Z,5.40
2022-08-09T18:50:26.458Z,4.60
2022-08-09T18:53:06.402Z,4.80
2022-08-09T18:55:57.004Z,5.80
2022-08-09T18:58:38.970Z,5.30
2022-08-09T19:01:11.050Z,5.60
2022-08-09T19:03:54.649Z,6.60
2022-08-09T19:06:38.577Z,4.90
2022-08-09T19:09:13.462Z,5.50
2022-08-09T19:11:52.489Z,6.10
2022-08-09T19:14:29.167Z,5.00
2022-08-09T19:17:01.387Z,4.80
2022-08-09T19:19:37.035Z,4.50
2022-08-09T19:22:15.234Z,4.80
2022-08-09T19:25:11.918Z,4.60
2022-08-09T19:27:40.746Z,5.10
2022-08-09T19:30:22.608Z,4.50
2022-08-09T19:33:00.728Z,4.90
2022-08-09T19:35:57.199Z,5.00
2022-08-09T19:38:25.034Z,5.10
2022-08-09T19:41:00.476Z,5.10
2022-08-09T19:44:00.735Z,5.50
2022-08-09T19:46:34.960Z,5.30
2022-08-09T19:50:08.546Z,5.20
2022-08-09T19:52:00.779Z,5.90
2022-08-09T19:57:04.384Z,5.70
2022-08-09T20:00:02.420Z,4.70
2022-08-09T20:04:26.332Z,5.10
2022-08-09T20:05:41.360Z,4.90
2022-08-09T20:08:24.981Z,5.40
2022-08-09T20:11:05.811Z,5.60
2022-08-09T20:16:37.862Z,6.00
2022-08-09T20:19:42.209Z,6.20
2022-08-09T20:21:56.932Z,5.20
2022-08-09T20:24:34.122Z,7.00
2022-08-09T20:27:08.192Z,6.00
2022-08-09T20:29:41.444Z,5.20
2022-08-09T20:32:29.085Z,6.20
2022-08-09T20:38:23.963Z,5.00
2022-08-09T20:40:31.638Z,5.80
2022-08-09T20:43:18.446Z,4.90
2022-08-09T20:46:00.839Z,5.10
2022-08-09T20:48:49.061Z,5.30
2022-08-09T20:51:26.821Z,5.10
2022-08-09T20:54:00.137Z,5.50
2022-08-09T20:56:35.546Z,5.70
2022-08-09T20:59:07.261Z,5.80
2022-08-09T21:01:49.818Z,6.80
2022-08-09T21:05:52.591Z,9.70
2022-08-09T21:07:16.530Z,8.30
2022-08-09T21:09:56.584Z,7.10
2022-08-09T21:12:32.955Z,6.50
2022-08-09T21:15:12.709Z,7.00
2022-08-09T21:18:22.018Z,6.10
2022-08-09T21:23:13.113Z,6.30
2022-08-09T21:25:59.744Z,5.90
2022-08-09T21:28:36.105Z,6.20
2022-08-09T21:31:17.033Z,6.40
2022-08-09T21:33:53.133Z,6.00
2022-08-09T21:36:30.597Z,5.80
2022-08-09T21:39:04.221Z,5.90
2022-08-09T21:42:03.720Z,5.80
2022-08-09T21:44:34.138Z,6.30
2022-08-09T21:47:10.380Z,5.60
2022-08-09T21:49:50.875Z,5.90
2022-08-09T21:52:23.603Z,6.70
2022-08-09T21:54:59.706Z,7.70
2022-08-09T21:57:58.786Z,6.10
2022-08-09T22:00:34.396Z,6.70
2022-08-09T22:03:08.343Z,6.60
2022-08-09T22:05:52.248Z,6.60
2022-08-09T22:08:25.937Z,7.30
2022-08-09T22:11:48.869Z,6.00
2022-08-09T22:13:50.118Z,7.40
2022-08-09T22:16:23.515Z,7.80
2022-08-09T22:18:55.853Z,7.90
2022-08-09T22:21:49.591Z,7.50
2022-08-09T22:24:24.858Z,6.90
2022-08-09T22:26:57.344Z,6.90
2022-08-09T22:29:38.344Z,8.30
2022-08-09T22:32:29.881Z,6.80
2022-08-09T22:38:06.550Z,7.50
2022-08-09T22:40:39.410Z,6.50
2022-08-09T22:44:00.682Z,7.70
2022-08-09T22:48:13.806Z,7.30
2022-08-09T22:49:09.697Z,7.20
2022-08-09T22:51:49.521Z,7.80
2022-08-09T22:54:21.631Z,8.10
2022-08-09T22:56:56.636Z,7.70
2022-08-09T22:59:55.859Z,7.10
2022-08-09T23:02:21.138Z,8.40
2022-08-09T23:04:57.064Z,8.60
2022-08-09T23:08:22.634Z,7.80
2022-08-09T23:10:43.694Z,7.50
2022-08-09T23:13:16.365Z,7.70
2022-08-09T23:16:03.340Z,7.80
2022-08-09T23:18:35.576Z,7.90
2022-08-09T23:21:07.776Z,7.80
2022-08-09T23:23:40.493Z,7.10
2022-08-09T23:28:42.422Z,8.00
2022-08-09T23:31:14.083Z,7.50
2022-08-09T23:33:45.929Z,7.60
2022-08-09T23:36:17.554Z,8.50
2022-08-09T23:38:49.587Z,9.50
2022-08-09T23:41:28.719Z,8.60
2022-08-09T23:44:03.400Z,7.00
2022-08-09T23:46:36.052Z,7.90
2022-08-09T23:49:07.694Z,8.20
2022-08-09T23:51:39.545Z,7.30
2022-08-09T23:54:11.373Z,8.20
2022-08-09T23:56:54.778Z,7.40
2022-08-09T23:59:50.280Z,7.80
